sensor_id;sensor_type;location;lat;lon;timestamp;pressure;altitude;pressure_sealevel;temperature;humidity
32243;BME280;18731;42.830;24.390;2024-02-21T00:00:50;95106.44;;;5.81;85.04
32243;BME280;18731;42.830;24.390;2024-02-21T00:03:15;95101.16;;;5.81;85.06
32243;BME280;18731;42.830;24.390;2024-02-21T00:05:41;95107.19;;;5.87;85.07
32243;BME280;18731;42.830;24.390;2024-02-21T00:08:06;95106.94;;;5.84;85.67
32243;BME280;18731;42.830;24.390;2024-02-21T00:10:32;95109.03;;;5.87;85.54
32243;BME280;18731;42.830;24.390;2024-02-21T00:12:58;95105.59;;;5.86;85.62
32243;BME280;18731;42.830;24.390;2024-02-21T00:15:26;95101.09;;;5.87;85.89
32243;BME280;18731;42.830;24.390;2024-02-21T00:17:52;95099.00;;;5.84;85.81
32243;BME280;18731;42.830;24.390;2024-02-21T00:20:18;95105.50;;;5.96;85.03
32243;BME280;18731;42.830;24.390;2024-02-21T00:22:44;95098.94;;;5.89;85.22
32243;BME280;18731;42.830;24.390;2024-02-21T00:25:10;95097.94;;;5.85;85.48
32243;BME280;18731;42.830;24.390;2024-02-21T00:27:35;95095.25;;;5.90;85.62
32243;BME280;18731;42.830;24.390;2024-02-21T00:30:01;95099.19;;;5.92;85.64
32243;BME280;18731;42.830;24.390;2024-02-21T00:32:27;95092.53;;;5.95;85.44
32243;BME280;18731;42.830;24.390;2024-02-21T00:34:52;95085.66;;;5.94;85.44
32243;BME280;18731;42.830;24.390;2024-02-21T00:37:18;95092.03;;;5.93;85.46
32243;BME280;18731;42.830;24.390;2024-02-21T00:39:43;95088.03;;;5.95;85.17
32243;BME280;18731;42.830;24.390;2024-02-21T00:42:09;95091.75;;;5.94;85.49
32243;BME280;18731;42.830;24.390;2024-02-21T00:44:34;95090.47;;;5.92;85.42
32243;BME280;18731;42.830;24.390;2024-02-21T00:47:00;95095.19;;;5.95;85.55
32243;BME280;18731;42.830;24.390;2024-02-21T00:49:25;95087.53;;;5.93;85.46
32243;BME280;18731;42.830;24.390;2024-02-21T00:51:51;95084.59;;;5.95;85.28
32243;BME280;18731;42.830;24.390;2024-02-21T00:54:16;95093.13;;;5.92;85.15
32243;BME280;18731;42.830;24.390;2024-02-21T00:56:42;95080.41;;;5.89;85.22
32243;BME280;18731;42.830;24.390;2024-02-21T00:59:08;95080.88;;;5.96;85.16
32243;BME280;18731;42.830;24.390;2024-02-21T01:01:34;95079.81;;;5.97;85.02
32243;BME280;18731;42.830;24.390;2024-02-21T01:03:59;95076.44;;;5.91;85.27
32243;BME280;18731;42.830;24.390;2024-02-21T01:06:25;95074.16;;;6.03;85.06
32243;BME280;18731;42.830;24.390;2024-02-21T01:08:51;95073.59;;;6.06;85.06
32243;BME280;18731;42.830;24.390;2024-02-21T01:11:17;95040.72;;;5.84;85.24
32243;BME280;18731;42.830;24.390;2024-02-21T01:13:42;95051.25;;;5.89;84.95
32243;BME280;18731;42.830;24.390;2024-02-21T01:16:08;95062.56;;;5.99;85.14
32243;BME280;18731;42.830;24.390;2024-02-21T01:18:34;95068.84;;;6.03;84.94
32243;BME280;18731;42.830;24.390;2024-02-21T01:21:01;95066.50;;;6.02;85.11
32243;BME280;18731;42.830;24.390;2024-02-21T01:23:27;95071.22;;;6.05;84.84
32243;BME280;18731;42.830;24.390;2024-02-21T01:25:52;95062.19;;;6.06;84.96
32243;BME280;18731;42.830;24.390;2024-02-21T01:28:18;95058.59;;;5.97;85.07
32243;BME280;18731;42.830;24.390;2024-02-21T01:30:44;95052.53;;;5.96;84.85
32243;BME280;18731;42.830;24.390;2024-02-21T01:33:09;95045.72;;;5.90;85.23
32243;BME280;18731;42.830;24.390;2024-02-21T01:35:36;95047.78;;;5.93;85.31
32243;BME280;18731;42.830;24.390;2024-02-21T01:38:02;95045.44;;;5.92;85.42
32243;BME280;18731;42.830;24.390;2024-02-21T01:40:27;95038.56;;;5.91;85.24
32243;BME280;18731;42.830;24.390;2024-02-21T01:42:55;95040.13;;;5.92;85.21
32243;BME280;18731;42.830;24.390;2024-02-21T01:45:21;95038.00;;;5.89;85.24
32243;BME280;18731;42.830;24.390;2024-02-21T01:47:47;95039.09;;;5.88;85.38
32243;BME280;18731;42.830;24.390;2024-02-21T01:50:14;95011.28;;;5.66;85.79
32243;BME280;18731;42.830;24.390;2024-02-21T01:52:41;95032.22;;;5.87;85.76
32243;BME280;18731;42.830;24.390;2024-02-21T01:55:09;95016.44;;;5.76;85.83
32243;BME280;18731;42.830;24.390;2024-02-21T01:57:36;95041.19;;;5.91;85.70
32243;BME280;18731;42.830;24.390;2024-02-21T02:00:02;95047.50;;;5.95;85.21
32243;BME280;18731;42.830;24.390;2024-02-21T02:02:29;95015.44;;;5.72;85.15
32243;BME280;18731;42.830;24.390;2024-02-21T02:04:54;95040.63;;;5.94;85.24
32243;BME280;18731;42.830;24.390;2024-02-21T02:07:21;95037.69;;;5.95;85.22
32243;BME280;18731;42.830;24.390;2024-02-21T02:09:46;95040.91;;;5.92;85.00
32243;BME280;18731;42.830;24.390;2024-02-21T02:12:12;95033.78;;;5.88;85.51
32243;BME280;18731;42.830;24.390;2024-02-21T02:14:38;95035.63;;;5.92;85.58
32243;BME280;18731;42.830;24.390;2024-02-21T02:17:03;95036.97;;;5.90;85.77
32243;BME280;18731;42.830;24.390;2024-02-21T02:19:29;95038.31;;;5.87;85.34
32243;BME280;18731;42.830;24.390;2024-02-21T02:22:00;95033.28;;;5.86;85.67
32243;BME280;18731;42.830;24.390;2024-02-21T02:24:28;95040.16;;;5.87;85.52
32243;BME280;18731;42.830;24.390;2024-02-21T02:26:54;95039.66;;;5.85;85.69
32243;BME280;18731;42.830;24.390;2024-02-21T02:29:20;95041.22;;;5.86;85.97
32243;BME280;18731;42.830;24.390;2024-02-21T02:31:45;95039.09;;;5.88;86.04
32243;BME280;18731;42.830;24.390;2024-02-21T02:34:11;95045.53;;;5.81;86.06
32243;BME280;18731;42.830;24.390;2024-02-21T02:36:36;95054.03;;;5.78;86.50
32243;BME280;18731;42.830;24.390;2024-02-21T02:39:02;95046.66;;;5.75;86.27
32243;BME280;18731;42.830;24.390;2024-02-21T02:41:27;95006.66;;;5.53;86.68
32243;BME280;18731;42.830;24.390;2024-02-21T02:43:53;95028.00;;;5.62;86.58
32243;BME280;18731;42.830;24.390;2024-02-21T02:46:18;95040.56;;;5.75;86.97
32243;BME280;18731;42.830;24.390;2024-02-21T02:48:44;95047.66;;;5.79;87.01
32243;BME280;18731;42.830;24.390;2024-02-21T02:51:10;95040.22;;;5.81;87.08
32243;BME280;18731;42.830;24.390;2024-02-21T02:53:35;95037.06;;;5.79;87.06
32243;BME280;18731;42.830;24.390;2024-02-21T02:56:01;95038.66;;;5.80;86.91
32243;BME280;18731;42.830;24.390;2024-02-21T02:58:27;95038.88;;;5.84;86.66
32243;BME280;18731;42.830;24.390;2024-02-21T03:00:53;95039.09;;;5.88;86.52
32243;BME280;18731;42.830;24.390;2024-02-21T03:03:19;95034.84;;;5.87;86.76
32243;BME280;18731;42.830;24.390;2024-02-21T03:05:45;95035.38;;;5.89;86.57
32243;BME280;18731;42.830;24.390;2024-02-21T03:08:11;95018.47;;;5.85;86.43
32243;BME280;18731;42.830;24.390;2024-02-21T03:10:36;95030.03;;;5.94;86.14
32243;BME280;18731;42.830;24.390;2024-02-21T03:13:02;95029.53;;;5.92;86.29
32243;BME280;18731;42.830;24.390;2024-02-21T03:15:28;95013.50;;;5.78;86.21
32243;BME280;18731;42.830;24.390;2024-02-21T03:17:54;95034.84;;;5.87;86.24
32243;BME280;18731;42.830;24.390;2024-02-21T03:20:20;95041.22;;;5.86;86.53
32243;BME280;18731;42.830;24.390;2024-02-21T03:22:45;95037.22;;;5.88;86.39
32243;BME280;18731;42.830;24.390;2024-02-21T03:25:11;95039.88;;;5.88;86.65
32243;BME280;18731;42.830;24.390;2024-02-21T03:27:38;95037.19;;;5.93;86.49
32243;BME280;18731;42.830;24.390;2024-02-21T03:30:04;95048.88;;;5.92;86.37
32243;BME280;18731;42.830;24.390;2024-02-21T03:32:29;95042.53;;;5.88;86.44
32243;BME280;18731;42.830;24.390;2024-02-21T03:34:55;95040.44;;;5.85;86.61
32243;BME280;18731;42.830;24.390;2024-02-21T03:37:21;95040.94;;;5.87;86.83
32243;BME280;18731;42.830;24.390;2024-02-21T03:39:46;95046.25;;;5.87;86.93
32243;BME280;18731;42.830;24.390;2024-02-21T03:42:12;95048.63;;;5.89;86.90
32243;BME280;18731;42.830;24.390;2024-02-21T03:44:37;95051.25;;;5.89;86.88
32243;BME280;18731;42.830;24.390;2024-02-21T03:47:03;95053.47;;;5.81;87.50
32243;BME280;18731;42.830;24.390;2024-02-21T03:49:29;95050.47;;;5.88;87.22
32243;BME280;18731;42.830;24.390;2024-02-21T03:51:54;95044.97;;;5.85;86.93
32243;BME280;18731;42.830;24.390;2024-02-21T03:54:20;95048.44;;;5.80;86.96
32243;BME280;18731;42.830;24.390;2024-02-21T03:56:46;95055.66;;;5.74;87.22
32243;BME280;18731;42.830;24.390;2024-02-21T03:59:14;95048.00;;;5.73;87.15
32243;BME280;18731;42.830;24.390;2024-02-21T04:01:40;95043.72;;;5.77;87.29
32243;BME280;18731;42.830;24.390;2024-02-21T04:04:05;95044.22;;;5.79;87.24
32243;BME280;18731;42.830;24.390;2024-02-21T04:06:32;95048.38;;;5.85;87.22
32243;BME280;18731;42.830;24.390;2024-02-21T04:08:57;95049.47;;;5.84;87.28
32243;BME280;18731;42.830;24.390;2024-02-21T04:11:23;95052.34;;;5.88;87.33
32243;BME280;18731;42.830;24.390;2024-02-21T04:13:48;95041.56;;;6.03;86.44
32243;BME280;18731;42.830;24.390;2024-02-21T04:16:16;95052.69;;;6.05;86.27
32243;BME280;18731;42.830;24.390;2024-02-21T04:18:42;95053.25;;;6.02;86.16
32243;BME280;18731;42.830;24.390;2024-02-21T04:21:08;95052.81;;;5.95;86.30
32243;BME280;18731;42.830;24.390;2024-02-21T04:23:34;95051.22;;;5.94;86.61
32243;BME280;18731;42.830;24.390;2024-02-21T04:26:00;95060.97;;;5.98;86.56
32243;BME280;18731;42.830;24.390;2024-02-21T04:28:25;95055.91;;;6.02;86.31
32243;BME280;18731;42.830;24.390;2024-02-21T04:30:51;95050.66;;;5.97;86.30
32243;BME280;18731;42.830;24.390;2024-02-21T04:33:16;95059.41;;;5.97;86.29
32243;BME280;18731;42.830;24.390;2024-02-21T04:35:42;95055.22;;;5.91;86.75
32243;BME280;18731;42.830;24.390;2024-02-21T04:38:07;95060.81;;;5.90;86.83
32243;BME280;18731;42.830;24.390;2024-02-21T04:40:33;95056.47;;;5.99;86.61
32243;BME280;18731;42.830;24.390;2024-02-21T04:42:58;95061.75;;;5.99;86.22
32243;BME280;18731;42.830;24.390;2024-02-21T04:45:24;95059.41;;;5.97;86.36
32243;BME280;18731;42.830;24.390;2024-02-21T04:47:49;95058.91;;;5.95;86.44
32243;BME280;18731;42.830;24.390;2024-02-21T04:50:15;95059.19;;;5.94;86.59
32243;BME280;18731;42.830;24.390;2024-02-21T04:52:40;95057.81;;;5.96;86.49
32243;BME280;18731;42.830;24.390;2024-02-21T04:55:06;95059.69;;;5.96;86.38
32243;BME280;18731;42.830;24.390;2024-02-21T04:57:32;95065.47;;;5.98;86.69
32243;BME280;18731;42.830;24.390;2024-02-21T04:59:58;95072.66;;;5.97;86.47
32243;BME280;18731;42.830;24.390;2024-02-21T05:02:23;95038.66;;;5.80;86.33
32243;BME280;18731;42.830;24.390;2024-02-21T05:04:50;95068.84;;;6.03;86.13
32243;BME280;18731;42.830;24.390;2024-02-21T05:07:15;95064.34;;;6.04;86.02
32243;BME280;18731;42.830;24.390;2024-02-21T05:09:44;95071.56;;;5.98;86.24
32243;BME280;18731;42.830;24.390;2024-02-21T05:12:10;95069.78;;;5.94;85.97
32243;BME280;18731;42.830;24.390;2024-02-21T05:14:35;95074.00;;;5.95;86.28
32243;BME280;18731;42.830;24.390;2024-02-21T05:17:01;95072.72;;;5.92;86.40
32243;BME280;18731;42.830;24.390;2024-02-21T05:19:26;95071.13;;;5.91;86.66
32243;BME280;18731;42.830;24.390;2024-02-21T05:21:52;95072.72;;;5.92;86.81
32243;BME280;18731;42.830;24.390;2024-02-21T05:24:17;95076.66;;;5.95;87.04
32243;BME280;18731;42.830;24.390;2024-02-21T05:26:43;95076.09;;;5.98;86.71
32243;BME280;18731;42.830;24.390;2024-02-21T05:29:08;95072.13;;;5.95;86.82
32243;BME280;18731;42.830;24.390;2024-02-21T05:32:03;95076.66;;;5.95;86.78
32243;BME280;18731;42.830;24.390;2024-02-21T05:34:29;95068.69;;;5.95;86.90
32243;BME280;18731;42.830;24.390;2024-02-21T05:36:54;95080.38;;;5.94;86.84
32243;BME280;18731;42.830;24.390;2024-02-21T05:39:20;95080.41;;;5.89;87.43
32243;BME280;18731;42.830;24.390;2024-02-21T05:41:48;95081.16;;;5.94;87.17
32243;BME280;18731;42.830;24.390;2024-02-21T05:44:13;95083.53;;;5.96;86.77
32243;BME280;18731;42.830;24.390;2024-02-21T05:46:39;95083.53;;;5.96;86.81
32243;BME280;18731;42.830;24.390;2024-02-21T05:49:05;95090.41;;;5.97;86.72
32243;BME280;18731;42.830;24.390;2024-02-21T05:51:34;95087.75;;;5.97;86.69
32243;BME280;18731;42.830;24.390;2024-02-21T05:54:00;95079.75;;;6.02;86.59
32243;BME280;18731;42.830;24.390;2024-02-21T05:56:25;95088.69;;;6.06;86.52
32243;BME280;18731;42.830;24.390;2024-02-21T05:58:51;95079.88;;;5.92;86.56
32243;BME280;18731;42.830;24.390;2024-02-21T06:01:16;95097.16;;;6.08;86.75
32243;BME280;18731;42.830;24.390;2024-02-21T06:03:43;95100.31;;;6.10;86.47
32243;BME280;18731;42.830;24.390;2024-02-21T06:06:08;95104.47;;;6.16;86.75
32243;BME280;18731;42.830;24.390;2024-02-21T06:08:34;95102.84;;;6.20;86.84
32243;BME280;18731;42.830;24.390;2024-02-21T06:10:59;95099.31;;;6.25;86.63
32243;BME280;18731;42.830;24.390;2024-02-21T06:13:25;95102.13;;;6.33;86.12
32243;BME280;18731;42.830;24.390;2024-02-21T06:15:50;95097.69;;;6.29;86.23
32243;BME280;18731;42.830;24.390;2024-02-21T06:18:20;95116.97;;;6.34;86.25
32243;BME280;18731;42.830;24.390;2024-02-21T06:20:46;95094.69;;;6.35;85.82
32243;BME280;18731;42.830;24.390;2024-02-21T06:23:12;95110.94;;;6.48;85.06
32243;BME280;18731;42.830;24.390;2024-02-21T06:25:38;95113.53;;;6.53;84.76
32243;BME280;18731;42.830;24.390;2024-02-21T06:28:05;95116.69;;;6.55;85.04
32243;BME280;18731;42.830;24.390;2024-02-21T06:30:30;95125.38;;;6.60;84.81
32243;BME280;18731;42.830;24.390;2024-02-21T06:32:56;95117.63;;;6.64;83.79
32243;BME280;18731;42.830;24.390;2024-02-21T06:35:22;95117.47;;;6.74;83.61
32243;BME280;18731;42.830;24.390;2024-02-21T06:37:50;95113.38;;;6.82;83.54
32243;BME280;18731;42.830;24.390;2024-02-21T06:40:17;95116.81;;;6.82;82.89
32243;BME280;18731;42.830;24.390;2024-02-21T06:42:43;95122.63;;;6.84;82.08
32243;BME280;18731;42.830;24.390;2024-02-21T06:45:08;95093.38;;;6.70;81.64
32243;BME280;18731;42.830;24.390;2024-02-21T06:47:34;95111.72;;;6.86;81.97
32243;BME280;18731;42.830;24.390;2024-02-21T06:49:59;95125.13;;;6.94;81.56
32243;BME280;18731;42.830;24.390;2024-02-21T06:52:25;95117.25;;;6.89;80.85
32243;BME280;18731;42.830;24.390;2024-02-21T06:54:51;95118.81;;;6.90;80.51
32243;BME280;18731;42.830;24.390;2024-02-21T06:57:16;95092.72;;;6.78;80.12
32243;BME280;18731;42.830;24.390;2024-02-21T06:59:42;95128.28;;;6.96;80.33
32243;BME280;18731;42.830;24.390;2024-02-21T07:02:07;95092.81;;;6.73;80.70
32243;BME280;18731;42.830;24.390;2024-02-21T07:04:33;95108.78;;;6.87;80.07
32243;BME280;18731;42.830;24.390;2024-02-21T07:06:59;95123.22;;;7.14;79.95
32243;BME280;18731;42.830;24.390;2024-02-21T07:09:24;95117.56;;;7.20;80.04
32243;BME280;18731;42.830;24.390;2024-02-21T07:11:50;95115.38;;;7.22;79.80
32243;BME280;18731;42.830;24.390;2024-02-21T07:14:15;95105.47;;;7.28;78.82
32243;BME280;18731;42.830;24.390;2024-02-21T07:16:41;95119.97;;;7.49;77.82
32243;BME280;18731;42.830;24.390;2024-02-21T07:19:07;95125.69;;;7.56;77.50
32243;BME280;18731;42.830;24.390;2024-02-21T07:21:32;95122.38;;;7.64;77.79
32243;BME280;18731;42.830;24.390;2024-02-21T07:23:58;95094.91;;;7.55;77.58
32243;BME280;18731;42.830;24.390;2024-02-21T07:26:23;95124.34;;;7.72;76.29
32243;BME280;18731;42.830;24.390;2024-02-21T07:28:49;95124.00;;;7.93;75.25
32243;BME280;18731;42.830;24.390;2024-02-21T07:31:15;95124.28;;;7.91;74.05
32243;BME280;18731;42.830;24.390;2024-02-21T07:33:40;95115.72;;;7.94;72.51
32243;BME280;18731;42.830;24.390;2024-02-21T07:36:10;95117.09;;;7.92;73.09
32243;BME280;18731;42.830;24.390;2024-02-21T07:38:36;95124.97;;;7.97;72.38
32243;BME280;18731;42.830;24.390;2024-02-21T07:41:02;95125.06;;;8.05;71.60
32243;BME280;18731;42.830;24.390;2024-02-21T07:43:29;95125.38;;;8.04;71.86
32243;BME280;18731;42.830;24.390;2024-02-21T07:45:55;95116.91;;;8.02;72.92
32243;BME280;18731;42.830;24.390;2024-02-21T07:48:21;95121.31;;;8.20;72.34
32243;BME280;18731;42.830;24.390;2024-02-21T07:50:51;95119.06;;;8.27;73.66
32243;BME280;18731;42.830;24.390;2024-02-21T07:53:17;95121.25;;;8.39;73.55
32243;BME280;18731;42.830;24.390;2024-02-21T07:55:43;95114.31;;;8.52;73.72
32243;BME280;18731;42.830;24.390;2024-02-21T07:58:08;95111.44;;;8.62;73.21
32243;BME280;18731;42.830;24.390;2024-02-21T08:00:34;95108.91;;;8.79;72.59
32243;BME280;18731;42.830;24.390;2024-02-21T08:02:59;95119.28;;;9.03;72.40
32243;BME280;18731;42.830;24.390;2024-02-21T08:05:25;95115.47;;;9.18;70.75
32243;BME280;18731;42.830;24.390;2024-02-21T08:07:50;95113.28;;;9.20;68.20
32243;BME280;18731;42.830;24.390;2024-02-21T08:10:16;95111.34;;;9.12;67.83
32243;BME280;18731;42.830;24.390;2024-02-21T08:12:41;95120.84;;;9.04;68.26
32243;BME280;18731;42.830;24.390;2024-02-21T08:15:07;95097.97;;;9.03;66.78
32243;BME280;18731;42.830;24.390;2024-02-21T08:17:36;95115.53;;;9.26;65.09
32243;BME280;18731;42.830;24.390;2024-02-21T08:20:01;95114.88;;;9.21;65.27
32243;BME280;18731;42.830;24.390;2024-02-21T08:22:28;95105.06;;;9.30;63.52
32243;BME280;18731;42.830;24.390;2024-02-21T08:24:53;95071.28;;;9.17;62.96
32243;BME280;18731;42.830;24.390;2024-02-21T08:27:19;95111.00;;;9.58;61.71
32243;BME280;18731;42.830;24.390;2024-02-21T08:29:44;95081.97;;;9.48;60.11
32243;BME280;18731;42.830;24.390;2024-02-21T08:32:10;95113.16;;;9.78;60.84
32243;BME280;18731;42.830;24.390;2024-02-21T08:34:35;95113.31;;;9.82;61.18
32243;BME280;18731;42.830;24.390;2024-02-21T08:37:01;95111.09;;;9.75;60.10
32243;BME280;18731;42.830;24.390;2024-02-21T08:39:26;95111.00;;;9.89;59.98
32243;BME280;18731;42.830;24.390;2024-02-21T08:41:54;95115.59;;;9.66;59.46
32243;BME280;18731;42.830;24.390;2024-02-21T08:44:19;95105.28;;;9.73;60.13
32243;BME280;18731;42.830;24.390;2024-02-21T08:46:45;95118.44;;;9.70;60.08
32243;BME280;18731;42.830;24.390;2024-02-21T08:49:12;95104.31;;;9.69;58.32
32243;BME280;18731;42.830;24.390;2024-02-21T08:51:39;95115.50;;;9.80;57.87
32243;BME280;18731;42.830;24.390;2024-02-21T08:54:04;95117.47;;;9.65;56.88
32243;BME280;18731;42.830;24.390;2024-02-21T08:56:30;95125.00;;;9.63;59.63
32243;BME280;18731;42.830;24.390;2024-02-21T08:58:56;95118.88;;;9.63;59.33
32243;BME280;18731;42.830;24.390;2024-02-21T09:01:23;95123.19;;;9.50;59.50
32243;BME280;18731;42.830;24.390;2024-02-21T09:03:48;95103.03;;;9.58;57.30
32243;BME280;18731;42.830;24.390;2024-02-21T09:06:18;95123.13;;;9.64;56.41
32243;BME280;18731;42.830;24.390;2024-02-21T09:08:45;95126.00;;;9.45;57.43
32243;BME280;18731;42.830;24.390;2024-02-21T09:11:10;95136.91;;;9.35;58.82
32243;BME280;18731;42.830;24.390;2024-02-21T09:13:36;95136.91;;;9.35;58.24
32243;BME280;18731;42.830;24.390;2024-02-21T09:16:02;95129.88;;;9.17;57.47
32243;BME280;18731;42.830;24.390;2024-02-21T09:18:28;95128.00;;;9.17;58.78
32243;BME280;18731;42.830;24.390;2024-02-21T09:20:54;95124.50;;;9.30;57.89
32243;BME280;18731;42.830;24.390;2024-02-21T09:23:19;95125.16;;;9.36;56.82
32243;BME280;18731;42.830;24.390;2024-02-21T09:25:45;95114.00;;;9.34;57.59
32243;BME280;18731;42.830;24.390;2024-02-21T09:28:11;95116.94;;;9.55;58.68
32243;BME280;18731;42.830;24.390;2024-02-21T09:30:38;95107.84;;;9.87;56.65
32243;BME280;18731;42.830;24.390;2024-02-21T09:33:03;95113.81;;;10.23;55.18
32243;BME280;18731;42.830;24.390;2024-02-21T09:35:30;95112.03;;;10.76;54.52
32243;BME280;18731;42.830;24.390;2024-02-21T09:37:56;95087.97;;;11.27;50.89
32243;BME280;18731;42.830;24.390;2024-02-21T09:40:22;95085.94;;;11.88;50.72
32243;BME280;18731;42.830;24.390;2024-02-21T09:42:48;95113.56;;;12.89;49.59
32243;BME280;18731;42.830;24.390;2024-02-21T09:45:23;95118.03;;;13.06;46.30
32243;BME280;18731;42.830;24.390;2024-02-21T09:50:21;95119.69;;;13.19;47.81
32243;BME280;18731;42.830;24.390;2024-02-21T09:52:48;95112.13;;;13.13;46.44
32243;BME280;18731;42.830;24.390;2024-02-21T09:55:15;95115.03;;;13.29;45.74
32243;BME280;18731;42.830;24.390;2024-02-21T09:57:41;95108.03;;;13.36;45.10
32243;BME280;18731;42.830;24.390;2024-02-21T10:00:09;95111.56;;;13.07;44.73
32243;BME280;18731;42.830;24.390;2024-02-21T10:02:35;95114.97;;;12.66;45.00
32243;BME280;18731;42.830;24.390;2024-02-21T10:05:01;95075.88;;;12.23;46.81
32243;BME280;18731;42.830;24.390;2024-02-21T10:07:27;95100.78;;;12.15;47.40
32243;BME280;18731;42.830;24.390;2024-02-21T10:10:05;95090.91;;;12.07;47.85
32243;BME280;18731;42.830;24.390;2024-02-21T10:12:31;95096.22;;;11.78;48.81
32243;BME280;18731;42.830;24.390;2024-02-21T10:15:04;95095.13;;;11.62;49.65
32243;BME280;18731;42.830;24.390;2024-02-21T10:17:30;95090.22;;;11.81;49.63
32243;BME280;18731;42.830;24.390;2024-02-21T10:20:06;95090.50;;;11.88;47.24
32243;BME280;18731;42.830;24.390;2024-02-21T10:22:31;95082.66;;;11.83;47.38
32243;BME280;18731;42.830;24.390;2024-02-21T10:25:11;95046.38;;;12.03;46.01
32243;BME280;18731;42.830;24.390;2024-02-21T10:27:37;95074.53;;;12.59;44.76
32243;BME280;18731;42.830;24.390;2024-02-21T10:30:05;95069.59;;;13.44;43.33
32243;BME280;18731;42.830;24.390;2024-02-21T10:32:31;95055.13;;;13.70;40.85
32243;BME280;18731;42.830;24.390;2024-02-21T10:35:03;95043.06;;;13.64;40.46
32243;BME280;18731;42.830;24.390;2024-02-21T10:37:34;95054.25;;;13.90;39.93
32243;BME280;18731;42.830;24.390;2024-02-21T10:40:00;95013.06;;;13.04;40.97
32243;BME280;18731;42.830;24.390;2024-02-21T10:42:29;95042.19;;;13.27;41.79
32243;BME280;18731;42.830;24.390;2024-02-21T10:45:00;95037.22;;;13.49;43.02
32243;BME280;18731;42.830;24.390;2024-02-21T10:47:28;95012.88;;;13.79;41.58
32243;BME280;18731;42.830;24.390;2024-02-21T10:50:03;95033.78;;;14.22;42.15
32243;BME280;18731;42.830;24.390;2024-02-21T10:55:38;95023.91;;;14.63;40.78
32243;BME280;18731;42.830;24.390;2024-02-21T10:58:08;95022.03;;;13.66;40.73
32243;BME280;18731;42.830;24.390;2024-02-21T11:00:35;95031.59;;;13.09;42.43
32243;BME280;18731;42.830;24.390;2024-02-21T11:03:02;95020.66;;;12.81;43.03
32243;BME280;18731;42.830;24.390;2024-02-21T11:05:28;95030.19;;;12.29;43.94
32243;BME280;18731;42.830;24.390;2024-02-21T11:07:55;95022.72;;;11.84;45.21
32243;BME280;18731;42.830;24.390;2024-02-21T11:10:24;95028.66;;;11.51;47.91
32243;BME280;18731;42.830;24.390;2024-02-21T11:13:10;95028.69;;;11.34;47.18
32243;BME280;18731;42.830;24.390;2024-02-21T11:15:36;94993.25;;;11.08;47.57
32243;BME280;18731;42.830;24.390;2024-02-21T11:18:01;95021.38;;;11.05;47.27
32243;BME280;18731;42.830;24.390;2024-02-21T11:20:37;95018.44;;;11.45;50.14
32243;BME280;18731;42.830;24.390;2024-02-21T11:23:03;95016.16;;;11.64;46.78
32243;BME280;18731;42.830;24.390;2024-02-21T11:25:29;95016.53;;;11.92;45.63
32243;BME280;18731;42.830;24.390;2024-02-21T11:28:05;95007.97;;;12.28;46.33
32243;BME280;18731;42.830;24.390;2024-02-21T11:30:35;95012.75;;;12.22;44.62
32243;BME280;18731;42.830;24.390;2024-02-21T11:33:06;94987.50;;;11.73;44.78
32243;BME280;18731;42.830;24.390;2024-02-21T11:35:35;95004.78;;;11.76;44.92
32243;BME280;18731;42.830;24.390;2024-02-21T11:38:11;95013.53;;;11.55;45.53
32243;BME280;18731;42.830;24.390;2024-02-21T11:40:40;94997.97;;;11.11;46.41
32243;BME280;18731;42.830;24.390;2024-02-21T11:43:07;94991.56;;;10.94;46.71
32243;BME280;18731;42.830;24.390;2024-02-21T11:45:33;95016.53;;;10.81;47.58
32243;BME280;18731;42.830;24.390;2024-02-21T11:47:59;95006.03;;;10.68;48.09
32243;BME280;18731;42.830;24.390;2024-02-21T11:50:26;95012.31;;;10.72;47.75
32243;BME280;18731;42.830;24.390;2024-02-21T11:52:54;95015.00;;;10.63;48.99
32243;BME280;18731;42.830;24.390;2024-02-21T11:55:21;95004.94;;;10.51;47.02
32243;BME280;18731;42.830;24.390;2024-02-21T11:57:50;94999.13;;;10.41;47.81
32243;BME280;18731;42.830;24.390;2024-02-21T12:00:17;94997.25;;;10.41;46.36
32243;BME280;18731;42.830;24.390;2024-02-21T12:02:44;94996.78;;;10.48;47.59
32243;BME280;18731;42.830;24.390;2024-02-21T12:05:10;94984.53;;;10.47;46.80
32243;BME280;18731;42.830;24.390;2024-02-21T12:07:37;94988.63;;;10.53;46.62
32243;BME280;18731;42.830;24.390;2024-02-21T12:10:14;94983.75;;;10.63;46.43
32243;BME280;18731;42.830;24.390;2024-02-21T12:12:40;94979.34;;;10.68;47.31
32243;BME280;18731;42.830;24.390;2024-02-21T12:15:07;94978.19;;;10.94;45.73
32243;BME280;18731;42.830;24.390;2024-02-21T12:17:36;94972.53;;;11.81;46.42
32243;BME280;18731;42.830;24.390;2024-02-21T12:20:07;94971.13;;;12.67;42.21
32243;BME280;18731;42.830;24.390;2024-02-21T12:22:41;94954.72;;;13.22;41.54
32243;BME280;18731;42.830;24.390;2024-02-21T12:25:17;94960.53;;;14.09;40.26
32243;BME280;18731;42.830;24.390;2024-02-21T12:27:48;94951.47;;;14.66;39.12
32243;BME280;18731;42.830;24.390;2024-02-21T12:30:15;94944.41;;;14.90;36.38
32243;BME280;18731;42.830;24.390;2024-02-21T12:32:40;94950.16;;;15.04;36.82
32243;BME280;18731;42.830;24.390;2024-02-21T12:35:07;94952.19;;;15.23;37.68
32243;BME280;18731;42.830;24.390;2024-02-21T12:37:32;94946.13;;;15.41;35.30
32243;BME280;18731;42.830;24.390;2024-02-21T12:39:58;94946.03;;;15.22;36.51
32243;BME280;18731;42.830;24.390;2024-02-21T12:42:24;94913.78;;;14.78;36.20
32243;BME280;18731;42.830;24.390;2024-02-21T12:44:51;94939.84;;;14.62;37.56
32243;BME280;18731;42.830;24.390;2024-02-21T12:47:18;94946.63;;;14.32;38.48
32243;BME280;18731;42.830;24.390;2024-02-21T12:49:45;94917.16;;;13.95;38.18
32243;BME280;18731;42.830;24.390;2024-02-21T12:52:11;94935.41;;;13.90;37.96
32243;BME280;18731;42.830;24.390;2024-02-21T12:54:36;94925.31;;;14.11;38.64
32243;BME280;18731;42.830;24.390;2024-02-21T12:57:02;94935.19;;;14.35;36.59
32243;BME280;18731;42.830;24.390;2024-02-21T12:59:29;94905.44;;;14.00;36.68